Disclaimer

Please do not use the information listed here in-flight or in-navigation, as they are not provided to us by the airports but are provided by volunteers, so they might be outdated.

Search


Regions


Airport information page

Radio informations:
GUIYANG TWR - 118.3 MHz
GUIYING APP - 126.05 MHz

Airport informations:
Latitude: 26° 32' 18.68" N
Longitude: 106° 48' 02.53" E
Elevation: 3736 feet - 1139 meters
Operating hours: N/A
Operating agency: Civil government, landing fees and diplomatic clearance may be required
Timezone: UTC+8
Fuel: N/A

Runway information:
01/19 - 10500 x 197 feet< - >3200 x 60 meters

Recent METARs:
ZUGY 180500Z 36005MPS 9999 BKN018 OVC033 08/04 Q1023 NOSIG
ZUGY 180600Z 02004MPS 340V050 9999 BKN018 OVC033 08/04 Q1022 NOSIG
ZUGY 180600Z 02004MPS 340V050 9999 BKN018 OVC033 08/04 Q1022 NOSIG

Airport on the map: